Time;durP1;ratioP1;P1;durP2;ratioP2;P2;SDS_P1;SDS_P2;PMS_P1;PMS_P2;Temp;Humidity;BMP_temperature;BMP_pressure;BME280_temperature;BME280_humidity;BME280_pressure;Samples;Min_cycle;Max_cycle;Signal;HPM_P1;HPM_P2
2022/08/10 00:00:49;;;;;;;0.00;0.00;;;23.30;63.70;;;;;;4172900;28;20049;-61
2022/08/10 00:03:11;;;;;;;0.00;0.00;;;23.30;63.70;;;;;;4177209;28;20063;-60
2022/08/10 00:05:34;;;;;;;0.57;0.13;;;23.40;63.80;;;;;;4175973;28;20048;-61
2022/08/10 00:08:05;;;;;;;0.00;0.00;;;23.30;63.80;;;;;;4170693;28;20124;-61
2022/08/10 00:10:27;;;;;;;0.00;0.00;;;23.40;63.80;;;;;;4173675;28;20099;-61
2022/08/10 00:12:50;;;;;;;0.00;0.00;;;23.40;63.90;;;;;;4184974;28;20052;-62
2022/08/10 00:15:19;;;;;;;4.38;0.57;;;23.40;63.90;;;;;;4182700;28;20462;-61
2022/08/10 00:18:03;;;;;;;0.00;0.00;;;23.30;63.80;;;;;;4160261;28;20136;-62
2022/08/10 00:20:25;;;;;;;0.00;0.00;;;23.30;63.80;;;;;;4159961;28;20503;-62
2022/08/10 00:22:47;;;;;;;0.00;0.00;;;23.30;63.90;;;;;;4143706;28;20038;-66
2022/08/10 00:25:13;;;;;;;0.00;0.00;;;23.30;64.00;;;;;;4143577;28;20513;-66
2022/08/10 00:27:35;;;;;;;0.00;0.00;;;23.30;64.00;;;;;;4148357;28;20047;-66
2022/08/10 00:30:12;;;;;;;0.10;0.10;;;23.30;64.00;;;;;;4190821;28;20080;-61
2022/08/10 00:32:34;;;;;;;0.10;0.10;;;23.30;64.10;;;;;;4192569;28;20437;-62
2022/08/10 00:34:58;;;;;;;0.00;0.00;;;23.30;64.10;;;;;;4192820;28;20051;-66
2022/08/10 00:37:20;;;;;;;0.00;0.00;;;23.30;64.10;;;;;;4192984;28;20578;-66
2022/08/10 00:39:42;;;;;;;0.00;0.00;;;23.30;64.20;;;;;;4193444;28;20377;-68
2022/08/10 00:42:05;;;;;;;0.00;0.00;;;23.30;64.20;;;;;;4192729;28;20056;-66
2022/08/10 00:44:29;;;;;;;0.00;0.00;;;23.30;64.30;;;;;;4186940;28;20045;-66
2022/08/10 00:46:51;;;;;;;0.03;0.03;;;23.30;64.30;;;;;;4176772;28;20136;-65
2022/08/10 00:49:13;;;;;;;0.55;0.55;;;23.30;64.40;;;;;;4175196;28;20581;-67
2022/08/10 00:51:37;;;;;;;0.00;0.00;;;23.30;64.40;;;;;;4175899;28;20075;-65
2022/08/10 00:54:05;;;;;;;0.00;0.00;;;23.20;64.30;;;;;;4176040;28;20048;-65
2022/08/10 00:56:28;;;;;;;0.00;0.00;;;23.30;64.50;;;;;;4175094;28;20045;-65
2022/08/10 00:58:56;;;;;;;0.00;0.00;;;23.20;64.40;;;;;;4175112;28;20176;-65
2022/08/10 01:01:18;;;;;;;0.00;0.00;;;23.20;64.40;;;;;;4176077;28;20056;-65
2022/08/10 01:03:43;;;;;;;0.00;0.00;;;23.20;64.40;;;;;;4175279;28;20045;-65
2022/08/10 01:06:31;;;;;;;0.00;0.00;;;23.20;64.50;;;;;;4172739;28;20053;-67
2022/08/10 01:09:06;;;;;;;0.00;0.00;;;23.20;64.50;;;;;;4167357;28;20475;-65
2022/08/10 01:11:33;;;;;;;0.00;0.00;;;23.20;64.60;;;;;;4175469;28;20049;-65
2022/08/10 01:14:22;;;;;;;0.00;0.00;;;23.20;64.60;;;;;;4164317;28;20562;-65
2022/08/10 01:16:52;;;;;;;0.00;0.00;;;23.20;64.60;;;;;;4174855;28;20045;-65
2022/08/10 01:19:28;;;;;;;0.00;0.00;;;23.20;64.60;;;;;;4175166;28;20053;-65
2022/08/10 01:22:12;;;;;;;0.17;0.17;;;23.20;64.60;;;;;;4174427;28;20053;-65
2022/08/10 01:25:06;;;;;;;0.10;0.10;;;23.20;64.60;;;;;;4175126;28;20049;-65
2022/08/10 01:27:34;;;;;;;0.00;0.00;;;23.20;64.70;;;;;;4171081;28;20088;-65
2022/08/10 01:30:01;;;;;;;0.00;0.00;;;23.20;64.80;;;;;;4175644;28;20072;-65
2022/08/10 01:32:37;;;;;;;0.00;0.00;;;23.20;64.80;;;;;;4171658;28;20052;-65
2022/08/10 01:35:06;;;;;;;0.00;0.00;;;23.10;64.80;;;;;;4172184;28;20508;-65
2022/08/10 01:37:34;;;;;;;0.00;0.00;;;23.20;64.80;;;;;;4171842;28;20480;-65
2022/08/10 01:40:00;;;;;;;0.10;0.10;;;23.20;64.90;;;;;;4171377;28;20055;-65
2022/08/10 01:42:24;;;;;;;0.00;0.00;;;23.20;65.00;;;;;;4172730;28;20056;-65
2022/08/10 01:44:52;;;;;;;0.00;0.00;;;23.10;65.00;;;;;;4175351;28;20202;-65
2022/08/10 01:50:03;;;;;;;0.00;0.00;;;23.10;65.00;;;;;;4168828;28;20072;-65
2022/08/10 01:52:27;;;;;;;0.00;0.00;;;23.10;64.90;;;;;;4175117;28;20072;-65
2022/08/10 01:54:51;;;;;;;0.00;0.00;;;23.10;65.00;;;;;;4175196;28;20064;-65
2022/08/10 01:57:16;;;;;;;0.20;0.20;;;23.00;65.00;;;;;;4173542;28;20059;-65
2022/08/10 01:59:41;;;;;;;0.63;0.57;;;23.00;65.10;;;;;;4175237;28;20063;-65
2022/08/10 02:02:06;;;;;;;0.00;0.00;;;23.00;65.20;;;;;;4174469;28;20087;-65
2022/08/10 02:04:32;;;;;;;0.00;0.00;;;23.00;65.20;;;;;;4188278;28;20055;-65
2022/08/10 02:06:55;;;;;;;0.00;0.00;;;23.00;66.10;;;;;;4191340;28;20063;-65
2022/08/10 02:09:22;;;;;;;0.00;0.00;;;23.00;65.30;;;;;;4191734;28;20055;-65
2022/08/10 02:11:44;;;;;;;0.00;0.00;;;23.00;65.30;;;;;;4191367;28;20060;-65
2022/08/10 02:14:18;;;;;;;0.00;0.00;;;23.00;65.40;;;;;;4191076;28;20060;-65
2022/08/10 02:16:42;;;;;;;0.00;0.00;;;23.00;65.40;;;;;;4189894;28;20123;-65
2022/08/10 02:19:06;;;;;;;0.10;0.10;;;23.00;65.40;;;;;;4174931;28;20067;-65
2022/08/10 02:21:30;;;;;;;0.00;0.00;;;23.00;66.30;;;;;;4173960;28;20048;-65
2022/08/10 02:23:54;;;;;;;0.00;0.00;;;23.00;65.40;;;;;;4175352;28;20057;-65
2022/08/10 02:26:20;;;;;;;0.90;0.60;;;22.90;65.40;;;;;;4174834;28;20476;-66
2022/08/10 02:28:43;;;;;;;0.00;0.00;;;22.90;65.40;;;;;;4188714;28;20040;-66
2022/08/10 02:31:08;;;;;;;0.00;0.00;;;22.90;65.40;;;;;;4191304;28;20048;-65
2022/08/10 02:33:33;;;;;;;0.00;0.00;;;23.00;65.50;;;;;;4189698;28;20068;-65
2022/08/10 02:36:00;;;;;;;0.00;0.00;;;22.90;65.40;;;;;;4191216;28;20098;-65
2022/08/10 02:38:31;;;;;;;0.00;0.00;;;23.00;65.50;;;;;;4191764;28;20216;-67
2022/08/10 02:41:18;;;;;;;0.00;0.00;;;23.00;65.50;;;;;;4190902;28;20068;-65
2022/08/10 02:44:05;;;;;;;0.03;0.03;;;22.90;65.40;;;;;;4158442;28;20049;-65
2022/08/10 02:46:53;;;;;;;0.00;0.00;;;22.90;65.60;;;;;;4158403;28;20069;-65
2022/08/10 02:49:21;;;;;;;0.00;0.00;;;22.90;65.60;;;;;;4165663;28;20080;-65
2022/08/10 02:51:49;;;;;;;0.00;0.00;;;22.90;65.60;;;;;;4174929;28;20041;-65
2022/08/10 02:54:35;;;;;;;0.00;0.00;;;22.90;65.70;;;;;;4174939;28;20446;-65
2022/08/10 02:57:04;;;;;;;0.00;0.00;;;22.90;65.70;;;;;;4178315;28;20052;-67
2022/08/10 02:59:32;;;;;;;0.00;0.00;;;22.90;65.80;;;;;;4191105;28;20148;-66
2022/08/10 03:02:03;;;;;;;0.20;0.20;;;22.90;65.80;;;;;;4190768;28;20049;-65
2022/08/10 03:04:31;;;;;;;0.10;0.10;;;22.90;65.90;;;;;;4186259;28;20057;-65
2022/08/10 03:07:16;;;;;;;0.00;0.00;;;22.90;65.90;;;;;;4174379;28;20079;-65
2022/08/10 03:09:41;;;;;;;0.20;0.20;;;22.90;65.90;;;;;;4172813;28;20162;-66
2022/08/10 03:12:07;;;;;;;0.00;0.00;;;22.90;65.90;;;;;;4165653;28;20072;-65
2022/08/10 03:14:38;;;;;;;0.32;0.32;;;22.90;66.00;;;;;;4157868;28;20548;-60
2022/08/10 03:17:02;;;;;;;0.43;0.43;;;22.90;65.90;;;;;;4157760;28;20115;-61
2022/08/10 03:19:25;;;;;;;0.00;0.00;;;22.90;65.90;;;;;;4158425;28;20119;-60
2022/08/10 03:22:08;;;;;;;0.00;0.00;;;22.90;66.00;;;;;;4191417;28;20063;-61
2022/08/10 03:24:32;;;;;;;0.00;0.00;;;22.90;65.90;;;;;;4190988;28;20144;-61
2022/08/10 03:26:57;;;;;;;0.00;0.00;;;22.80;65.90;;;;;;4187792;28;20491;-60
2022/08/10 03:29:21;;;;;;;0.13;0.13;;;22.80;65.90;;;;;;4189534;28;20051;-60
2022/08/10 03:31:43;;;;;;;0.00;0.00;;;22.80;66.00;;;;;;4188924;28;20044;-61
2022/08/10 03:34:06;;;;;;;0.00;0.00;;;22.80;66.00;;;;;;4193733;28;20164;-61
2022/08/10 03:36:41;;;;;;;0.00;0.00;;;22.80;66.10;;;;;;4189164;28;20480;-60
2022/08/10 03:39:06;;;;;;;0.00;0.00;;;22.80;66.10;;;;;;4192465;28;20107;-60
2022/08/10 03:41:35;;;;;;;0.10;0.10;;;22.80;66.10;;;;;;4193441;28;20045;-61
2022/08/10 03:43:59;;;;;;;0.00;0.00;;;22.80;66.10;;;;;;4186832;28;20074;-60
2022/08/10 03:46:24;;;;;;;0.00;0.00;;;22.80;66.20;;;;;;4216932;28;20059;-61
2022/08/10 03:48:50;;;;;;;0.00;0.00;;;22.80;66.10;;;;;;4192091;28;20044;-61
2022/08/10 03:51:12;;;;;;;0.00;0.00;;;22.80;66.20;;;;;;4191270;28;20067;-61
2022/08/10 03:53:35;;;;;;;0.00;0.00;;;22.80;66.10;;;;;;4193663;28;20102;-60
2022/08/10 03:56:17;;;;;;;0.00;0.00;;;22.80;66.40;;;;;;4193624;28;20126;-61
2022/08/10 03:58:51;;;;;;;0.25;0.25;;;22.80;66.20;;;;;;4193790;28;20121;-61
2022/08/10 04:01:16;;;;;;;0.00;0.00;;;22.80;66.30;;;;;;4193954;28;20055;-60
2022/08/10 04:03:38;;;;;;;0.00;0.00;;;22.80;66.30;;;;;;4185865;28;20433;-61
2022/08/10 04:06:00;;;;;;;0.65;0.52;;;22.70;66.30;;;;;;4174282;28;20052;-61
2022/08/10 04:08:22;;;;;;;0.00;0.00;;;22.80;66.50;;;;;;4175910;28;20371;-61
2022/08/10 04:10:44;;;;;;;0.00;0.00;;;22.70;66.50;;;;;;4177148;28;20051;-61
2022/08/10 04:13:06;;;;;;;0.60;0.60;;;22.70;66.40;;;;;;4159820;28;20067;-65
2022/08/10 04:15:28;;;;;;;0.00;0.00;;;22.70;66.50;;;;;;4160748;28;20137;-64
2022/08/10 04:17:51;;;;;;;0.13;0.13;;;22.70;66.50;;;;;;4188888;28;20463;-65
2022/08/10 04:20:25;;;;;;;0.00;0.00;;;22.70;66.50;;;;;;4193714;28;20498;-64
2022/08/10 04:22:51;;;;;;;0.00;0.00;;;22.70;66.50;;;;;;4192072;28;20084;-65
2022/08/10 04:25:16;;;;;;;1.75;0.57;;;22.70;66.60;;;;;;4144949;28;20084;-65
2022/08/10 04:27:38;;;;;;;0.08;0.08;;;22.70;66.60;;;;;;4160319;28;20122;-65
2022/08/10 04:30:00;;;;;;;0.00;0.00;;;22.70;66.60;;;;;;4160436;28;20050;-66
2022/08/10 04:32:23;;;;;;;0.68;0.43;;;22.70;66.70;;;;;;4185830;28;20586;-65
2022/08/10 04:34:48;;;;;;;0.00;0.00;;;22.70;66.70;;;;;;4159876;28;20049;-65
2022/08/10 04:37:12;;;;;;;0.45;0.35;;;22.70;66.70;;;;;;4192739;28;20062;-65
2022/08/10 04:39:34;;;;;;;2.63;0.38;;;22.70;66.70;;;;;;4190880;28;20045;-65
2022/08/10 04:41:57;;;;;;;1.48;1.38;;;22.70;66.70;;;;;;4193152;28;20052;-65
2022/08/10 04:44:19;;;;;;;0.00;0.00;;;22.70;66.70;;;;;;4192414;28;20083;-64
2022/08/10 04:46:40;;;;;;;0.00;0.00;;;22.70;66.70;;;;;;4191412;28;20064;-65
2022/08/10 04:49:03;;;;;;;0.00;0.00;;;22.70;66.70;;;;;;4192548;28;20059;-65
2022/08/10 04:51:27;;;;;;;0.08;0.08;;;22.70;66.70;;;;;;4192975;28;20071;-65
2022/08/10 04:53:51;;;;;;;0.00;0.00;;;22.70;66.70;;;;;;4191263;28;20181;-64
2022/08/10 04:56:27;;;;;;;0.00;0.00;;;22.70;66.80;;;;;;4175667;28;20598;-65
2022/08/10 04:58:52;;;;;;;0.70;0.70;;;22.60;66.60;;;;;;4174437;28;20111;-65
2022/08/10 05:01:14;;;;;;;0.00;0.00;;;22.70;66.70;;;;;;4159758;28;20049;-64
2022/08/10 05:03:37;;;;;;;1.75;1.08;;;22.70;66.80;;;;;;4159971;28;20151;-65
2022/08/10 05:06:19;;;;;;;0.00;0.00;;;22.70;66.80;;;;;;4174485;28;20422;-65
2022/08/10 05:08:42;;;;;;;0.00;0.00;;;22.70;66.90;;;;;;4175238;28;20059;-65
2022/08/10 05:11:04;;;;;;;0.00;0.00;;;22.70;67.00;;;;;;4175790;28;20045;-66
2022/08/10 05:13:28;;;;;;;4.13;1.85;;;22.70;67.10;;;;;;4175233;28;20045;-66
2022/08/10 05:15:50;;;;;;;0.00;0.00;;;22.70;67.50;;;;;;4176132;28;20381;-66
2022/08/10 05:18:12;;;;;;;0.00;0.00;;;22.70;67.80;;;;;;4174304;28;20146;-66
2022/08/10 05:20:35;;;;;;;2.53;1.23;;;22.70;67.50;;;;;;4176324;28;20539;-65
2022/08/10 05:22:57;;;;;;;0.00;0.00;;;22.80;68.30;;;;;;4173112;28;20111;-66
2022/08/10 05:25:20;;;;;;;0.00;0.00;;;22.80;67.50;;;;;;4160238;28;20050;-66
2022/08/10 05:27:43;;;;;;;0.00;0.00;;;22.80;67.70;;;;;;4173636;28;20078;-64
2022/08/10 05:30:06;;;;;;;1.98;1.45;;;22.80;67.80;;;;;;4174074;28;20067;-64
2022/08/10 05:32:29;;;;;;;0.00;0.00;;;22.80;68.00;;;;;;4175304;28;20071;-64
2022/08/10 05:34:50;;;;;;;0.00;0.00;;;22.70;68.20;;;;;;4174169;28;20114;-64
2022/08/10 05:37:14;;;;;;;0.00;0.00;;;22.80;68.30;;;;;;4175004;28;20109;-64
2022/08/10 05:39:57;;;;;;;0.00;0.00;;;22.70;68.30;;;;;;4158825;28;20115;-66
2022/08/10 05:42:22;;;;;;;0.00;0.00;;;22.80;68.60;;;;;;4163757;28;20083;-66
2022/08/10 05:44:45;;;;;;;0.08;0.08;;;22.80;68.80;;;;;;4178911;28;20056;-66
2022/08/10 05:47:08;;;;;;;0.00;0.00;;;22.70;68.60;;;;;;4187790;28;20068;-65
2022/08/10 05:49:33;;;;;;;0.00;0.00;;;22.70;68.70;;;;;;4192153;28;20071;-65
2022/08/10 05:51:55;;;;;;;0.00;0.00;;;22.70;68.50;;;;;;4191672;28;20571;-65
2022/08/10 05:54:18;;;;;;;0.40;0.40;;;22.70;68.50;;;;;;4173010;28;20506;-65
2022/08/10 05:56:42;;;;;;;0.03;0.03;;;22.70;68.90;;;;;;4173698;28;20067;-66
2022/08/10 05:59:18;;;;;;;0.00;0.00;;;22.70;68.70;;;;;;4158405;28;20054;-66
2022/08/10 06:02:03;;;;;;;0.00;0.00;;;22.70;68.60;;;;;;4164818;28;20136;-66
2022/08/10 06:04:47;;;;;;;0.00;0.00;;;22.70;68.60;;;;;;4175148;28;20459;-67
2022/08/10 06:07:13;;;;;;;0.00;0.00;;;22.70;68.60;;;;;;4173954;28;20048;-66
2022/08/10 06:09:39;;;;;;;0.00;0.00;;;22.80;68.70;;;;;;4174517;28;20080;-66
2022/08/10 06:12:23;;;;;;;0.10;0.10;;;22.80;68.70;;;;;;4172011;28;20106;-62
2022/08/10 06:14:59;;;;;;;0.75;0.75;;;22.80;69.20;;;;;;4174874;28;20052;-62
2022/08/10 06:17:28;;;;;;;0.52;0.52;;;22.90;69.60;;;;;;4175146;28;20131;-62
2022/08/10 06:19:51;;;;;;;0.17;0.17;;;22.80;69.90;;;;;;4174989;28;20048;-62
2022/08/10 06:22:14;;;;;;;0.00;0.00;;;22.80;70.30;;;;;;4174413;28;20083;-62
2022/08/10 06:24:39;;;;;;;0.65;0.65;;;22.80;69.90;;;;;;4158732;28;20045;-63
2022/08/10 06:27:21;;;;;;;0.00;0.00;;;22.80;69.90;;;;;;4158449;28;20466;-62
2022/08/10 06:29:58;;;;;;;0.00;0.00;;;22.90;70.60;;;;;;4151913;28;20044;-64
2022/08/10 06:32:24;;;;;;;0.00;0.00;;;22.90;70.50;;;;;;4166999;28;20135;-67
2022/08/10 06:34:50;;;;;;;0.28;0.28;;;22.90;70.60;;;;;;4158685;28;20511;-64
2022/08/10 06:37:16;;;;;;;0.00;0.00;;;22.90;71.50;;;;;;4157674;28;20049;-63
2022/08/10 06:39:38;;;;;;;0.10;0.10;;;22.90;71.10;;;;;;4174445;28;20094;-66
2022/08/10 06:42:08;;;;;;;0.00;0.00;;;22.90;72.20;;;;;;4174322;28;20052;-70
2022/08/10 06:44:43;;;;;;;0.00;0.00;;;23.00;70.90;;;;;;4173523;28;20055;-64
2022/08/10 06:47:11;;;;;;;0.00;0.00;;;23.00;70.80;;;;;;4156403;28;20456;-65
2022/08/10 06:49:35;;;;;;;0.25;0.25;;;23.00;70.80;;;;;;4157415;28;20132;-63
2022/08/10 06:52:01;;;;;;;0.00;0.00;;;23.00;70.60;;;;;;4158313;28;20069;-65
2022/08/10 06:54:25;;;;;;;0.70;0.70;;;23.00;70.90;;;;;;4158410;28;20515;-66
2022/08/10 06:56:48;;;;;;;0.00;0.00;;;23.10;70.70;;;;;;4173953;28;20107;-62
2022/08/10 06:59:36;;;;;;;0.00;0.00;;;23.10;70.80;;;;;;4174111;28;20049;-66
2022/08/10 07:02:02;;;;;;;0.00;0.00;;;23.20;70.80;;;;;;4173835;28;20170;-66
2022/08/10 07:04:27;;;;;;;0.15;0.15;;;23.20;71.00;;;;;;4159702;28;20137;-66
2022/08/10 07:06:56;;;;;;;0.00;0.00;;;23.20;70.60;;;;;;4163424;28;20520;-68
2022/08/10 07:09:20;;;;;;;0.00;0.00;;;23.20;70.60;;;;;;4175837;28;20048;-62
2022/08/10 07:11:44;;;;;;;0.00;0.00;;;23.30;70.50;;;;;;4178089;28;20045;-62
2022/08/10 07:14:09;;;;;;;0.32;0.32;;;23.30;70.50;;;;;;4177124;28;20159;-66
2022/08/10 07:16:41;;;;;;;0.00;0.00;;;23.30;70.20;;;;;;4177303;28;20361;-66
2022/08/10 07:19:04;;;;;;;0.00;0.00;;;23.40;70.20;;;;;;4175778;28;20045;-66
2022/08/10 07:21:30;;;;;;;0.35;0.35;;;23.50;70.10;;;;;;4175143;28;20207;-66
2022/08/10 07:23:53;;;;;;;0.00;0.00;;;23.50;69.80;;;;;;4176566;28;20091;-67
2022/08/10 07:26:22;;;;;;;0.10;0.10;;;23.60;69.70;;;;;;4177409;28;20037;-67
2022/08/10 07:28:46;;;;;;;0.00;0.00;;;23.60;69.50;;;;;;4177196;28;20083;-66
2022/08/10 07:31:10;;;;;;;0.40;0.40;;;23.60;69.40;;;;;;4161153;28;20049;-66
2022/08/10 07:33:54;;;;;;;0.00;0.00;;;23.60;69.30;;;;;;4160839;28;20045;-66
2022/08/10 07:36:20;;;;;;;0.10;0.10;;;23.70;69.10;;;;;;4160314;28;20053;-67
2022/08/10 07:38:44;;;;;;;0.00;0.00;;;23.80;68.80;;;;;;4174850;28;20114;-66
2022/08/10 07:41:08;;;;;;;0.00;0.00;;;23.80;68.50;;;;;;4176345;28;20079;-66
2022/08/10 07:43:37;;;;;;;0.10;0.10;;;23.80;68.40;;;;;;4177583;28;20057;-67
2022/08/10 07:46:00;;;;;;;0.00;0.00;;;23.80;68.20;;;;;;4177295;28;20053;-67
2022/08/10 07:48:26;;;;;;;0.00;0.00;;;23.90;67.80;;;;;;4177896;28;20463;-66
2022/08/10 07:50:51;;;;;;;0.00;0.00;;;23.90;68.00;;;;;;4177277;28;20044;-66
2022/08/10 07:53:18;;;;;;;0.00;0.00;;;23.90;68.20;;;;;;4177537;28;20099;-63
2022/08/10 07:55:47;;;;;;;0.00;0.00;;;24.00;68.50;;;;;;4176189;28;20045;-63
2022/08/10 07:58:34;;;;;;;0.00;0.00;;;24.00;68.70;;;;;;4177013;28;20118;-63
2022/08/10 08:00:57;;;;;;;0.00;0.00;;;24.00;68.90;;;;;;4175557;28;20056;-68
2022/08/10 08:03:23;;;;;;;0.00;0.00;;;24.10;67.30;;;;;;4177299;28;20105;-67
2022/08/10 08:05:47;;;;;;;0.00;0.00;;;24.10;66.70;;;;;;4175589;28;20045;-67
2022/08/10 08:08:21;;;;;;;0.00;0.00;;;24.10;66.50;;;;;;4177142;28;20056;-67
2022/08/10 08:10:46;;;;;;;0.00;0.00;;;24.20;66.30;;;;;;4174679;28;20630;-67
2022/08/10 08:13:09;;;;;;;0.15;0.15;;;24.20;66.20;;;;;;4176519;28;20045;-63
2022/08/10 08:15:33;;;;;;;0.00;0.00;;;24.20;66.20;;;;;;4176716;28;20099;-67
2022/08/10 08:18:17;;;;;;;0.22;0.22;;;24.30;65.70;;;;;;4176105;28;20056;-67
2022/08/10 08:20:44;;;;;;;0.10;0.10;;;24.30;65.00;;;;;;4176248;28;20053;-72
2022/08/10 08:23:06;;;;;;;0.10;0.10;;;24.30;64.80;;;;;;4177096;28;20049;-67
2022/08/10 08:25:50;;;;;;;0.00;0.00;;;24.30;64.20;;;;;;4172310;28;20041;-66
2022/08/10 08:28:14;;;;;;;0.00;0.00;;;24.40;64.60;;;;;;4176313;28;20053;-63
2022/08/10 08:30:37;;;;;;;0.20;0.20;;;24.40;64.30;;;;;;4175478;28;20132;-66
2022/08/10 08:33:01;;;;;;;0.00;0.00;;;24.40;64.30;;;;;;4176380;28;20049;-63
2022/08/10 08:35:25;;;;;;;0.00;0.00;;;24.50;64.20;;;;;;4193081;28;20044;-63
2022/08/10 08:37:48;;;;;;;0.00;0.00;;;24.50;64.00;;;;;;4192980;28;20539;-64
2022/08/10 08:40:35;;;;;;;0.43;0.43;;;24.50;64.10;;;;;;4188916;28;20045;-63
2022/08/10 08:43:21;;;;;;;0.28;0.28;;;24.50;63.80;;;;;;4159861;28;20693;-63
2022/08/10 08:46:09;;;;;;;0.70;0.70;;;24.50;63.60;;;;;;4159452;28;20053;-63
2022/08/10 08:48:47;;;;;;;0.00;0.00;;;24.50;63.50;;;;;;4165674;28;20072;-67
2022/08/10 08:51:18;;;;;;;0.08;0.08;;;24.60;63.40;;;;;;4175271;28;20041;-68
2022/08/10 08:54:11;;;;;;;0.00;0.00;;;24.60;63.50;;;;;;4176158;28;20059;-67
2022/08/10 08:56:40;;;;;;;0.00;0.00;;;24.60;63.50;;;;;;4173913;28;20060;-63
2022/08/10 08:59:31;;;;;;;0.22;0.22;;;24.60;63.40;;;;;;4175122;28;20057;-63
2022/08/10 09:02:08;;;;;;;0.05;0.05;;;24.60;63.00;;;;;;4175835;28;20411;-62
2022/08/10 09:05:00;;;;;;;0.00;0.00;;;24.70;62.90;;;;;;4175868;28;20064;-67
2022/08/10 09:07:44;;;;;;;0.00;0.00;;;24.70;62.80;;;;;;4174619;28;20190;-66
2022/08/10 09:10:33;;;;;;;0.00;0.00;;;24.70;63.70;;;;;;4173568;28;20591;-65
2022/08/10 09:13:06;;;;;;;0.00;0.00;;;24.80;63.60;;;;;;4157789;28;20052;-64
2022/08/10 09:15:40;;;;;;;0.20;0.20;;;24.80;63.10;;;;;;4163693;28;20128;-64
2022/08/10 09:18:10;;;;;;;0.08;0.05;;;24.80;63.00;;;;;;4175063;28;20508;-67
2022/08/10 09:20:37;;;;;;;0.88;0.60;;;24.80;62.80;;;;;;4170244;28;20505;-67
2022/08/10 09:23:07;;;;;;;0.00;0.00;;;24.80;62.70;;;;;;4175160;28;20419;-67
2022/08/10 09:25:34;;;;;;;0.00;0.00;;;24.90;62.50;;;;;;4174823;28;20049;-66
2022/08/10 09:28:02;;;;;;;0.05;0.05;;;24.90;62.30;;;;;;4175163;28;20045;-67
2022/08/10 09:30:31;;;;;;;0.03;0.03;;;24.90;62.10;;;;;;4175499;28;20061;-67
2022/08/10 09:33:04;;;;;;;0.00;0.00;;;25.00;62.10;;;;;;4175435;28;20055;-66
2022/08/10 09:35:53;;;;;;;0.20;0.20;;;25.00;61.90;;;;;;4175234;28;20071;-66
2022/08/10 09:38:48;;;;;;;0.00;0.00;;;25.00;61.50;;;;;;4172739;28;20129;-66
2022/08/10 09:41:22;;;;;;;0.00;0.00;;;25.00;61.50;;;;;;4175242;28;20472;-67
2022/08/10 09:43:52;;;;;;;0.00;0.00;;;25.10;61.30;;;;;;4175189;28;20163;-66
2022/08/10 09:46:24;;;;;;;0.05;0.05;;;25.10;61.30;;;;;;4174964;28;20048;-67
2022/08/10 09:49:03;;;;;;;0.00;0.00;;;25.10;61.20;;;;;;4175092;28;20577;-67
2022/08/10 09:51:35;;;;;;;0.00;0.00;;;25.20;61.20;;;;;;4174111;28;20045;-66
2022/08/10 09:54:20;;;;;;;0.00;0.00;;;25.20;60.80;;;;;;4191114;28;20139;-66
2022/08/10 09:56:53;;;;;;;0.00;0.00;;;25.20;60.60;;;;;;4191381;28;20376;-68
2022/08/10 09:59:35;;;;;;;0.00;0.00;;;25.30;60.80;;;;;;4190096;28;20052;-67
2022/08/10 10:02:26;;;;;;;0.00;0.00;;;25.30;60.50;;;;;;4192127;28;20487;-66
2022/08/10 10:04:58;;;;;;;0.00;0.00;;;25.30;60.50;;;;;;4191569;28;20043;-67
2022/08/10 10:07:25;;;;;;;0.03;0.03;;;25.30;60.20;;;;;;4191439;28;20484;-67
2022/08/10 10:09:54;;;;;;;0.00;0.00;;;25.30;60.40;;;;;;4189789;28;20395;-63
2022/08/10 10:12:25;;;;;;;0.00;0.00;;;25.40;60.20;;;;;;4172493;28;20045;-64
2022/08/10 10:18:00;;;;;;;0.00;0.00;;;25.40;61.60;;;;;;4174697;28;20045;-64
2022/08/10 10:20:28;;;;;;;0.00;0.00;;;25.50;61.30;;;;;;4174411;28;20057;-66
2022/08/10 10:22:59;;;;;;;0.00;0.00;;;25.50;61.10;;;;;;4174768;28;20076;-66
2022/08/10 10:25:27;;;;;;;0.05;0.05;;;25.50;61.20;;;;;;4173261;28;20068;-67
2022/08/10 10:28:16;;;;;;;0.00;0.00;;;25.60;61.50;;;;;;4175143;28;20110;-65
2022/08/10 10:30:58;;;;;;;0.10;0.10;;;25.50;61.40;;;;;;4189982;28;20143;-66
2022/08/10 10:33:35;;;;;;;0.00;0.00;;;25.50;60.80;;;;;;4189623;28;20053;-66
2022/08/10 10:36:00;;;;;;;0.03;0.03;;;25.60;61.60;;;;;;4190837;28;20086;-66
2022/08/10 10:38:26;;;;;;;0.10;0.10;;;25.60;60.70;;;;;;4191642;28;20048;-65
2022/08/10 10:40:54;;;;;;;0.00;0.00;;;25.60;61.20;;;;;;4158512;28;20101;-67
2022/08/10 10:43:39;;;;;;;0.17;0.17;;;25.70;61.00;;;;;;4161047;28;20419;-66
2022/08/10 10:46:12;;;;;;;0.65;0.65;;;25.70;60.80;;;;;;4192534;28;20056;-66
2022/08/10 10:48:42;;;;;;;0.00;0.00;;;25.70;60.50;;;;;;4194513;28;20056;-66
2022/08/10 10:51:11;;;;;;;0.00;0.00;;;25.70;60.20;;;;;;4186863;28;20098;-66
2022/08/10 10:53:41;;;;;;;0.00;0.00;;;25.80;59.80;;;;;;4174268;28;20050;-67
2022/08/10 10:56:16;;;;;;;0.00;0.00;;;25.80;59.80;;;;;;4166978;28;20052;-66
2022/08/10 10:58:48;;;;;;;0.10;0.10;;;25.80;60.50;;;;;;4185818;28;20052;-66
2022/08/10 11:01:23;;;;;;;0.03;0.03;;;25.90;59.50;;;;;;4161487;28;20041;-66
2022/08/10 11:04:00;;;;;;;0.00;0.00;;;25.90;59.80;;;;;;4169495;28;20124;-67
2022/08/10 11:06:37;;;;;;;0.00;0.00;;;25.90;58.80;;;;;;4177570;28;20059;-66
2022/08/10 11:09:08;;;;;;;1.27;0.57;;;25.90;58.90;;;;;;4177601;28;20480;-67
2022/08/10 11:11:33;;;;;;;0.00;0.00;;;25.90;58.60;;;;;;4177151;28;20515;-66
2022/08/10 11:14:27;;;;;;;0.00;0.00;;;25.90;58.10;;;;;;4177566;28;20051;-68
2022/08/10 11:16:58;;;;;;;0.00;0.00;;;26.00;58.40;;;;;;4177351;28;20045;-67
2022/08/10 11:19:30;;;;;;;0.10;0.10;;;26.00;58.20;;;;;;4176978;28;20049;-70
2022/08/10 11:22:18;;;;;;;0.00;0.00;;;26.00;58.10;;;;;;4176531;28;20064;-67
2022/08/10 11:24:52;;;;;;;0.00;0.00;;;26.10;58.30;;;;;;4176810;28;20439;-67
2022/08/10 11:27:21;;;;;;;0.00;0.00;;;26.10;58.30;;;;;;4177088;28;20496;-67
2022/08/10 11:29:50;;;;;;;0.00;0.00;;;26.10;57.90;;;;;;4175940;28;20539;-67
2022/08/10 11:32:18;;;;;;;0.45;0.45;;;26.10;57.80;;;;;;4160328;28;20733;-67
2022/08/10 11:34:55;;;;;;;0.00;0.00;;;26.10;57.80;;;;;;4160840;28;20055;-65
2022/08/10 11:37:41;;;;;;;0.10;0.10;;;26.10;58.10;;;;;;4160169;28;20096;-68
2022/08/10 11:40:29;;;;;;;0.00;0.00;;;26.10;58.10;;;;;;4173977;28;20143;-63
2022/08/10 11:43:05;;;;;;;0.00;0.00;;;26.20;58.10;;;;;;4177213;28;20463;-64
2022/08/10 11:45:33;;;;;;;0.00;0.00;;;26.10;58.20;;;;;;4177122;28;20510;-63
2022/08/10 11:48:00;;;;;;;0.00;0.00;;;26.20;57.80;;;;;;4177142;28;20045;-65
2022/08/10 11:50:26;;;;;;;0.25;0.25;;;26.20;57.20;;;;;;4160512;28;20515;-66
2022/08/10 11:52:57;;;;;;;0.20;0.20;;;26.20;57.50;;;;;;4160838;28;20127;-68
2022/08/10 11:55:20;;;;;;;0.55;0.55;;;26.20;57.50;;;;;;4160487;28;20053;-66
2022/08/10 11:57:45;;;;;;;0.00;0.00;;;26.20;57.70;;;;;;4172691;28;20056;-66
2022/08/10 12:00:15;;;;;;;0.00;0.00;;;26.20;57.40;;;;;;4176612;28;20215;-64
2022/08/10 12:02:41;;;;;;;0.90;0.60;;;26.30;56.70;;;;;;4177089;28;20048;-63
2022/08/10 12:05:09;;;;;;;0.00;0.00;;;26.30;56.90;;;;;;4176967;28;20070;-63
2022/08/10 12:07:34;;;;;;;0.30;0.30;;;26.30;57.20;;;;;;4176231;28;20110;-63
2022/08/10 12:10:18;;;;;;;0.00;0.00;;;26.30;56.70;;;;;;4175809;28;20052;-63
2022/08/10 12:12:45;;;;;;;0.98;0.90;;;26.40;56.70;;;;;;4163987;28;20069;-63
2022/08/10 12:15:12;;;;;;;0.03;0.03;;;26.40;56.70;;;;;;4176911;28;20075;-64
2022/08/10 12:17:42;;;;;;;0.00;0.00;;;26.40;56.10;;;;;;4176531;28;20126;-63
2022/08/10 12:20:09;;;;;;;0.00;0.00;;;26.40;56.00;;;;;;4176659;28;20125;-64
2022/08/10 12:22:37;;;;;;;0.00;0.00;;;26.40;56.40;;;;;;4176270;28;20738;-63
2022/08/10 12:25:03;;;;;;;0.00;0.00;;;26.40;56.10;;;;;;4176709;28;20080;-66
2022/08/10 12:27:36;;;;;;;0.00;0.00;;;26.40;55.50;;;;;;4176580;28;20037;-66
2022/08/10 12:30:03;;;;;;;0.00;0.00;;;26.40;55.70;;;;;;4176023;28;20072;-67
2022/08/10 12:32:30;;;;;;;0.00;0.00;;;26.50;55.70;;;;;;4176734;28;20085;-67
2022/08/10 12:35:00;;;;;;;0.00;0.00;;;26.50;55.20;;;;;;4175421;28;20053;-67
2022/08/10 12:37:29;;;;;;;0.00;0.00;;;26.50;55.30;;;;;;4176617;28;20056;-63
2022/08/10 12:40:03;;;;;;;0.00;0.00;;;26.50;55.20;;;;;;4175731;28;20114;-63
2022/08/10 12:42:52;;;;;;;0.00;0.00;;;26.50;55.30;;;;;;4173966;28;20044;-66
2022/08/10 12:45:32;;;;;;;3.53;1.20;;;26.50;55.10;;;;;;4175284;28;20045;-65
2022/08/10 12:48:01;;;;;;;0.00;0.00;;;26.60;55.20;;;;;;4158901;28;20123;-65
2022/08/10 12:50:30;;;;;;;0.00;0.00;;;26.60;55.30;;;;;;4158998;28;20060;-68
2022/08/10 12:53:01;;;;;;;0.00;0.00;;;26.60;55.00;;;;;;4168046;28;20051;-67
2022/08/10 12:55:28;;;;;;;0.00;0.00;;;26.60;56.00;;;;;;4176209;28;20048;-67
2022/08/10 12:57:53;;;;;;;0.65;0.65;;;26.60;54.90;;;;;;4174180;28;20052;-63
2022/08/10 13:00:17;;;;;;;0.00;0.00;;;26.70;55.10;;;;;;4175955;28;20134;-64
2022/08/10 13:02:41;;;;;;;0.00;0.00;;;26.70;54.80;;;;;;4166395;28;20048;-64
2022/08/10 13:05:12;;;;;;;0.00;0.00;;;26.70;54.60;;;;;;4174679;28;20060;-64